Costa Mesa, California
Current Conditions -  °F | °C
As of 12:53 AM on Wednesday 22 Oct 2014 (Local Time) from KSNA Reporting Station
Clear Clear  
Wind Chill: 66°   Ceiling: Unl
Heat Index: 66°   Visibility: 10mi
Dew Point: 60°   Wind: 0mph
Humidity: 81%   Direction: NA
Pressure: 29.88"   Gusts: NA
Location:  33.66°N, 117.9°W
Report Text: KSNA 220753Z AUTO 00000KT 10SM CLR 19/16 A2988 RMK AO2 SLP115 T01890156 402610183 TSNO $
Loading
Personal Weather Stations






























Interactive Weather Map
Tropical Storm Tracking
New forecast layout! Learn more

10-Day Weather Forecast

Advertisements
Track Severe Weather on mobile